createdAt,value
2018-07-31T00:00:15.262Z,3.37
2018-07-31T00:01:18.781Z,3.67
2018-07-31T00:02:22.422Z,3.70
2018-07-31T00:03:26.215Z,3.65
2018-07-31T00:04:29.741Z,3.60
2018-07-31T00:05:33.302Z,3.40
2018-07-31T00:06:36.843Z,3.20
2018-07-31T00:07:40.383Z,3.10
2018-07-31T00:08:43.970Z,3.40
2018-07-31T00:09:47.833Z,3.80
2018-07-31T00:10:51.630Z,3.00
2018-07-31T00:11:55.343Z,2.92
2018-07-31T00:12:59.205Z,3.50
2018-07-31T00:14:03.452Z,3.20
2018-07-31T00:15:09.683Z,3.20
2018-07-31T00:16:13.374Z,3.45
2018-07-31T00:17:16.937Z,3.00
2018-07-31T00:18:20.459Z,3.42
2018-07-31T00:19:24.557Z,3.10
2018-07-31T00:20:28.129Z,3.30
2018-07-31T00:21:31.679Z,3.12
2018-07-31T00:22:35.672Z,2.70
2018-07-31T00:23:39.237Z,4.03
2018-07-31T00:24:42.896Z,3.20
2018-07-31T00:25:46.365Z,2.92
2018-07-31T00:26:50.258Z,3.90
2018-07-31T00:27:54.468Z,2.80
2018-07-31T00:28:59.017Z,3.45
2018-07-31T00:30:02.598Z,2.75
2018-07-31T00:31:06.689Z,3.27
2018-07-31T00:32:10.610Z,3.70
2018-07-31T00:33:14.649Z,3.02
2018-07-31T00:34:18.353Z,2.62
2018-07-31T00:35:22.057Z,3.25
2018-07-31T00:36:25.760Z,3.62
2018-07-31T00:37:29.398Z,4.40
2018-07-31T00:38:32.875Z,3.08
2018-07-31T00:39:36.537Z,3.58
2018-07-31T00:40:40.494Z,3.10
2018-07-31T00:41:44.629Z,3.00
2018-07-31T00:42:48.152Z,2.67
2018-07-31T00:43:52.034Z,2.72
2018-07-31T00:44:55.667Z,3.65
2018-07-31T00:45:59.150Z,3.00
2018-07-31T00:47:02.735Z,3.27
2018-07-31T00:48:06.551Z,3.15
2018-07-31T00:49:10.173Z,2.80
2018-07-31T00:50:13.773Z,2.98
2018-07-31T00:51:17.346Z,3.30
2018-07-31T00:52:20.891Z,3.22
2018-07-31T00:53:24.361Z,3.08
2018-07-31T00:54:27.891Z,3.10
2018-07-31T00:55:31.512Z,3.15
2018-07-31T00:56:35.587Z,3.10
2018-07-31T00:57:39.105Z,3.45
2018-07-31T00:58:42.682Z,2.90
2018-07-31T00:59:46.185Z,2.90
2018-07-31T01:00:50.387Z,2.98
2018-07-31T01:01:54.728Z,3.30
2018-07-31T01:02:58.258Z,2.45
2018-07-31T01:04:01.918Z,3.45
2018-07-31T01:05:05.964Z,3.33
2018-07-31T01:06:09.569Z,3.37
2018-07-31T01:07:13.633Z,3.15
2018-07-31T01:08:17.159Z,3.10
2018-07-31T01:09:20.741Z,2.85
2018-07-31T01:10:24.372Z,3.10
2018-07-31T01:11:27.726Z,3.85
2018-07-31T01:12:31.281Z,3.45
2018-07-31T01:13:34.904Z,3.42
2018-07-31T01:14:38.587Z,3.40
2018-07-31T01:15:42.139Z,3.40
2018-07-31T01:16:45.718Z,3.20
2018-07-31T01:17:49.309Z,3.58
2018-07-31T01:18:52.953Z,3.17
2018-07-31T01:19:56.448Z,2.98
2018-07-31T01:21:00.901Z,3.08
2018-07-31T01:22:04.576Z,3.58
2018-07-31T01:23:08.289Z,3.67
2018-07-31T01:24:11.984Z,3.77
2018-07-31T01:25:15.504Z,3.70
2018-07-31T01:26:19.561Z,2.50
2018-07-31T01:27:23.070Z,3.72
2018-07-31T01:28:26.583Z,4.15
2018-07-31T01:29:30.215Z,3.90
2018-07-31T01:30:33.753Z,3.20
2018-07-31T01:31:37.215Z,3.20
2018-07-31T01:32:40.700Z,3.70
2018-07-31T01:33:44.308Z,4.00
2018-07-31T01:34:47.846Z,3.05
2018-07-31T01:35:51.029Z,4.25
2018-07-31T01:36:54.241Z,4.20
2018-07-31T01:37:58.075Z,3.52
2018-07-31T01:39:02.358Z,3.98
2018-07-31T01:40:06.036Z,3.75
2018-07-31T01:41:10.079Z,4.28
2018-07-31T01:42:13.578Z,4.25
2018-07-31T01:43:17.166Z,4.65
2018-07-31T01:44:20.635Z,3.77
2018-07-31T01:45:24.143Z,5.17
2018-07-31T01:46:27.650Z,4.55
2018-07-31T01:47:30.825Z,4.45
2018-07-31T01:48:34.396Z,4.45
2018-07-31T01:49:38.724Z,3.90
2018-07-31T01:50:42.195Z,4.75
2018-07-31T01:51:45.706Z,4.80
2018-07-31T01:52:49.393Z,5.08
2018-07-31T01:53:53.802Z,4.55
2018-07-31T01:54:57.633Z,6.15
2018-07-31T01:56:01.189Z,4.92
2018-07-31T01:57:04.760Z,4.85
2018-07-31T01:58:09.073Z,5.72
2018-07-31T01:59:12.647Z,5.65
2018-07-31T02:00:16.958Z,5.58
2018-07-31T02:01:21.184Z,5.65
2018-07-31T02:02:24.735Z,6.65
2018-07-31T02:03:28.523Z,6.05
2018-07-31T02:04:33.066Z,5.80
2018-07-31T02:05:37.300Z,5.83
2018-07-31T02:06:40.815Z,6.05
2018-07-31T02:07:44.783Z,5.80
2018-07-31T02:08:48.259Z,5.65
2018-07-31T02:09:51.795Z,6.33
2018-07-31T02:10:55.321Z,6.78
2018-07-31T02:11:58.910Z,6.50
2018-07-31T02:13:02.941Z,4.47
2018-07-31T02:14:06.475Z,6.47
2018-07-31T02:15:10.215Z,6.58
2018-07-31T02:16:14.085Z,6.45
2018-07-31T02:17:18.325Z,5.53
2018-07-31T02:18:21.908Z,6.78
2018-07-31T02:19:26.053Z,6.50
2018-07-31T02:20:29.618Z,6.80
2018-07-31T02:21:33.383Z,6.62
2018-07-31T02:22:36.976Z,5.20
2018-07-31T02:23:40.553Z,7.28
2018-07-31T02:24:44.336Z,6.92
2018-07-31T02:25:48.587Z,7.65
2018-07-31T02:26:52.918Z,5.22
2018-07-31T02:27:56.583Z,4.30
2018-07-31T02:29:00.045Z,7.53
2018-07-31T02:30:07.234Z,6.62
2018-07-31T02:31:11.588Z,5.83
2018-07-31T02:32:15.642Z,7.83
2018-07-31T02:33:19.923Z,7.60
2018-07-31T02:34:23.430Z,6.55
2018-07-31T02:35:26.882Z,7.45
2018-07-31T02:36:30.497Z,7.80
2018-07-31T02:37:33.961Z,7.47
2018-07-31T02:38:38.393Z,7.75
2018-07-31T02:39:42.440Z,7.12
2018-07-31T02:40:46.466Z,6.53
2018-07-31T02:41:50.239Z,6.50
2018-07-31T02:42:54.439Z,7.10
2018-07-31T02:43:58.012Z,8.28
2018-07-31T02:45:01.623Z,7.05
2018-07-31T02:46:04.847Z,7.95
2018-07-31T02:47:08.499Z,6.42
2018-07-31T02:48:12.186Z,7.92
2018-07-31T02:49:15.717Z,6.95
2018-07-31T02:50:19.344Z,6.87
2018-07-31T02:51:22.857Z,9.68
2018-07-31T02:52:26.316Z,8.98
2018-07-31T02:53:29.889Z,8.15
2018-07-31T02:54:33.723Z,8.28
2018-07-31T02:55:37.565Z,9.08
2018-07-31T02:56:41.084Z,7.12
2018-07-31T02:57:45.641Z,8.60
2018-07-31T02:58:49.279Z,7.10
2018-07-31T02:59:52.920Z,8.50
2018-07-31T03:00:56.510Z,7.53
2018-07-31T03:02:00.126Z,9.90
2018-07-31T03:03:03.746Z,5.00
2018-07-31T03:04:07.389Z,7.35
2018-07-31T03:05:12.086Z,8.10
2018-07-31T03:06:15.781Z,9.55
2018-07-31T03:07:19.274Z,8.98
2018-07-31T03:08:23.380Z,9.80
2018-07-31T03:09:27.131Z,9.93
2018-07-31T03:10:30.745Z,7.17
2018-07-31T03:11:34.097Z,5.47
2018-07-31T03:12:37.641Z,11.20
2018-07-31T03:13:41.379Z,8.88
2018-07-31T03:14:44.911Z,7.42
2018-07-31T03:15:48.558Z,10.72
2018-07-31T03:16:52.311Z,11.65
2018-07-31T03:17:55.869Z,11.28
2018-07-31T03:18:59.546Z,10.53
2018-07-31T03:20:03.244Z,10.98
2018-07-31T03:21:06.954Z,9.93
2018-07-31T03:22:10.489Z,8.05
2018-07-31T03:23:14.171Z,9.83
2018-07-31T03:24:17.691Z,10.10
2018-07-31T03:25:21.306Z,12.13
2018-07-31T03:26:24.838Z,11.57
2018-07-31T03:27:28.276Z,12.40
2018-07-31T03:28:31.876Z,11.15
2018-07-31T03:29:35.361Z,10.78
2018-07-31T03:30:38.897Z,9.75
2018-07-31T03:31:42.445Z,9.40
2018-07-31T03:32:45.986Z,11.00
2018-07-31T03:33:49.446Z,10.80
2018-07-31T03:34:53.030Z,12.70
2018-07-31T03:35:56.556Z,9.70
2018-07-31T03:37:00.140Z,11.53
2018-07-31T03:38:04.118Z,9.93
2018-07-31T03:39:09.922Z,12.80
2018-07-31T03:40:13.523Z,11.97
2018-07-31T03:41:17.121Z,10.72
2018-07-31T03:42:20.621Z,13.53
2018-07-31T03:43:24.187Z,10.20
2018-07-31T03:44:27.717Z,13.08
2018-07-31T03:45:31.246Z,13.18
2018-07-31T03:46:34.739Z,12.28
2018-07-31T03:47:38.426Z,12.50
2018-07-31T03:48:41.894Z,14.73
2018-07-31T03:49:45.412Z,13.60
2018-07-31T03:50:48.925Z,11.60
2018-07-31T03:51:52.470Z,12.85
2018-07-31T03:52:55.960Z,9.03
2018-07-31T03:53:59.435Z,12.58
2018-07-31T03:55:02.967Z,15.38
2018-07-31T03:56:06.614Z,13.43
2018-07-31T03:57:10.282Z,9.13
2018-07-31T03:58:13.812Z,9.75
2018-07-31T03:59:17.434Z,10.30
2018-07-31T04:00:21.161Z,12.13
2018-07-31T04:01:24.702Z,6.97
2018-07-31T04:02:28.268Z,9.45
2018-07-31T04:03:31.808Z,7.58
2018-07-31T04:04:35.308Z,10.58
2018-07-31T04:05:39.000Z,13.25
2018-07-31T04:06:42.497Z,13.43
2018-07-31T04:07:46.015Z,11.50
2018-07-31T04:08:49.499Z,9.53
2018-07-31T04:09:53.002Z,10.18
2018-07-31T04:10:56.579Z,13.22
2018-07-31T04:12:00.140Z,11.50
2018-07-31T04:13:03.294Z,12.53
2018-07-31T04:14:06.913Z,12.93
2018-07-31T04:15:10.500Z,13.25
2018-07-31T04:16:14.056Z,13.45
2018-07-31T04:17:17.527Z,13.15
2018-07-31T04:18:21.045Z,13.68
2018-07-31T04:19:24.637Z,10.03
2018-07-31T04:20:28.589Z,9.43
2018-07-31T04:21:32.253Z,13.28
2018-07-31T04:22:35.539Z,14.15
2018-07-31T04:23:39.858Z,14.25
2018-07-31T04:24:43.346Z,11.38
2018-07-31T04:25:46.834Z,13.22
2018-07-31T04:26:50.383Z,13.75
2018-07-31T04:27:54.104Z,14.15
2018-07-31T04:28:57.587Z,14.20
2018-07-31T04:30:01.139Z,13.78
2018-07-31T04:31:04.627Z,13.62
2018-07-31T04:32:08.154Z,13.10
2018-07-31T04:33:12.454Z,6.95
2018-07-31T04:34:16.002Z,13.58
2018-07-31T04:35:19.570Z,10.88
2018-07-31T04:36:23.140Z,8.80
2018-07-31T04:37:27.035Z,7.12
2018-07-31T04:38:30.598Z,12.20
2018-07-31T04:39:34.241Z,12.28
2018-07-31T04:40:37.755Z,6.72
2018-07-31T04:41:42.524Z,6.60
2018-07-31T04:42:45.985Z,6.25
2018-07-31T04:43:49.449Z,5.75
2018-07-31T04:44:52.989Z,6.58
2018-07-31T04:45:56.457Z,8.88
2018-07-31T04:46:59.984Z,11.57
2018-07-31T04:48:03.560Z,11.08
2018-07-31T04:49:07.192Z,8.53
2018-07-31T04:50:11.359Z,12.18
2018-07-31T04:51:14.886Z,10.28
2018-07-31T04:52:18.421Z,10.95
2018-07-31T04:53:21.989Z,11.15
2018-07-31T04:54:25.490Z,8.78
2018-07-31T04:55:28.972Z,10.53
2018-07-31T04:56:32.445Z,11.40
2018-07-31T04:57:35.957Z,7.47
2018-07-31T04:58:39.512Z,8.78
2018-07-31T04:59:43.000Z,11.45
2018-07-31T05:00:46.468Z,5.60
2018-07-31T05:01:50.008Z,10.15
2018-07-31T05:02:53.605Z,10.05
2018-07-31T05:03:57.094Z,8.85
2018-07-31T05:05:00.658Z,10.60
2018-07-31T05:06:04.133Z,7.40
2018-07-31T05:07:07.738Z,8.30
2018-07-31T05:08:11.394Z,10.63
2018-07-31T05:09:15.113Z,9.18
2018-07-31T05:10:18.579Z,11.35
2018-07-31T05:11:22.151Z,7.37
2018-07-31T05:12:25.661Z,11.20
2018-07-31T05:13:29.279Z,10.98
2018-07-31T05:14:32.834Z,9.53
2018-07-31T05:15:36.455Z,10.75
2018-07-31T05:16:40.014Z,9.05
2018-07-31T05:17:43.564Z,4.47
2018-07-31T05:18:47.100Z,8.10
2018-07-31T05:19:50.640Z,9.93
2018-07-31T05:20:54.473Z,9.08
2018-07-31T05:21:57.941Z,7.58
2018-07-31T05:23:01.487Z,9.70
2018-07-31T05:24:05.001Z,9.43
2018-07-31T05:25:08.574Z,9.78
2018-07-31T05:26:12.277Z,8.60
2018-07-31T05:27:15.764Z,9.35
2018-07-31T05:28:19.288Z,9.30
2018-07-31T05:29:22.810Z,8.90
2018-07-31T05:30:26.365Z,9.95
2018-07-31T05:31:29.825Z,9.88
2018-07-31T05:32:33.422Z,7.17
2018-07-31T05:33:36.991Z,7.47
2018-07-31T05:34:40.578Z,8.93
2018-07-31T05:35:44.111Z,8.65
2018-07-31T05:36:47.741Z,9.70
2018-07-31T05:37:51.345Z,8.98
2018-07-31T05:38:54.904Z,8.28
2018-07-31T05:39:58.417Z,8.53
2018-07-31T05:41:02.032Z,8.55
2018-07-31T05:42:05.596Z,8.68
2018-07-31T05:43:09.143Z,9.38
2018-07-31T05:44:12.786Z,5.25
2018-07-31T05:45:16.989Z,7.90
2018-07-31T05:46:20.493Z,5.50
2018-07-31T05:47:23.974Z,8.23
2018-07-31T05:48:27.517Z,8.00
2018-07-31T05:49:31.012Z,8.28
2018-07-31T05:50:34.494Z,7.40
2018-07-31T05:51:37.980Z,7.72
2018-07-31T05:52:41.481Z,8.40
2018-07-31T05:53:45.061Z,7.53
2018-07-31T05:54:48.567Z,7.85
2018-07-31T05:55:52.226Z,8.20
2018-07-31T05:56:55.778Z,7.55
2018-07-31T05:57:59.279Z,7.65
2018-07-31T05:59:02.796Z,7.25
2018-07-31T06:00:07.680Z,7.58
2018-07-31T06:01:11.228Z,6.97
2018-07-31T06:02:15.497Z,6.78
2018-07-31T06:03:19.082Z,6.62
2018-07-31T06:04:22.675Z,6.65
2018-07-31T06:05:26.266Z,6.95
2018-07-31T06:06:29.861Z,6.75
2018-07-31T06:07:33.683Z,6.97
2018-07-31T06:08:37.242Z,6.85
2018-07-31T06:09:40.890Z,7.17
2018-07-31T06:10:44.339Z,7.22
2018-07-31T06:11:47.879Z,5.65
2018-07-31T06:12:51.420Z,6.78
2018-07-31T06:13:54.962Z,4.35
2018-07-31T06:14:58.476Z,4.05
2018-07-31T06:16:02.670Z,6.67
2018-07-31T06:17:06.178Z,6.30
2018-07-31T06:18:09.748Z,6.90
2018-07-31T06:19:13.427Z,6.37
2018-07-31T06:20:17.435Z,7.35
2018-07-31T06:21:20.965Z,6.95
2018-07-31T06:22:24.446Z,6.08
2018-07-31T06:23:28.098Z,6.53
2018-07-31T06:24:31.608Z,6.37
2018-07-31T06:25:35.490Z,7.08
2018-07-31T06:26:39.131Z,6.35
2018-07-31T06:27:42.973Z,6.05
2018-07-31T06:28:46.457Z,6.55
2018-07-31T06:29:49.985Z,6.62
2018-07-31T06:30:53.530Z,6.28
2018-07-31T06:31:57.108Z,6.70
2018-07-31T06:33:00.617Z,5.87
2018-07-31T06:34:04.159Z,6.12
2018-07-31T06:35:07.745Z,5.17
2018-07-31T06:36:11.511Z,5.25
2018-07-31T06:37:15.078Z,5.92
2018-07-31T06:38:18.633Z,5.60
2018-07-31T06:39:22.158Z,5.60
2018-07-31T06:40:25.804Z,5.87
2018-07-31T06:41:29.343Z,5.60
2018-07-31T06:42:32.828Z,5.25
2018-07-31T06:43:36.577Z,5.60
2018-07-31T06:44:40.449Z,5.67
2018-07-31T06:45:44.033Z,4.97
2018-07-31T06:46:47.582Z,5.22
2018-07-31T06:47:51.094Z,3.95
2018-07-31T06:48:55.141Z,5.70
2018-07-31T06:49:58.602Z,5.28
2018-07-31T06:51:02.081Z,4.67
2018-07-31T06:52:05.622Z,4.95
2018-07-31T06:53:08.793Z,5.22
2018-07-31T06:54:12.624Z,5.37
2018-07-31T06:55:16.137Z,5.80
2018-07-31T06:56:19.692Z,4.70
2018-07-31T06:57:23.258Z,5.30
2018-07-31T06:58:26.784Z,5.17
2018-07-31T06:59:30.342Z,4.97
2018-07-31T07:00:33.849Z,5.12
2018-07-31T07:01:37.561Z,5.75
2018-07-31T07:02:41.066Z,5.10
2018-07-31T07:03:44.714Z,5.45
2018-07-31T07:04:48.243Z,5.53
2018-07-31T07:05:51.843Z,5.53
2018-07-31T07:06:55.472Z,5.55
2018-07-31T07:07:58.944Z,5.87
2018-07-31T07:09:02.503Z,4.97
2018-07-31T07:10:06.253Z,5.47
2018-07-31T07:11:09.827Z,4.37
2018-07-31T07:12:14.464Z,5.03
2018-07-31T07:13:17.967Z,5.33
2018-07-31T07:14:21.479Z,5.33
2018-07-31T07:15:25.028Z,4.80
2018-07-31T07:16:28.458Z,4.75
2018-07-31T07:17:32.036Z,5.03
2018-07-31T07:18:35.605Z,5.12
2018-07-31T07:19:39.208Z,4.37
2018-07-31T07:20:42.785Z,4.30
2018-07-31T07:21:46.421Z,5.28
2018-07-31T07:22:50.005Z,4.72
2018-07-31T07:23:53.577Z,4.65
2018-07-31T07:24:57.241Z,4.70
2018-07-31T07:26:00.742Z,5.42
2018-07-31T07:27:04.306Z,4.33
2018-07-31T07:28:07.979Z,4.00
2018-07-31T07:29:12.032Z,4.83
2018-07-31T07:30:15.737Z,4.33
2018-07-31T07:31:19.323Z,4.05
2018-07-31T07:32:22.885Z,4.58
2018-07-31T07:33:26.429Z,4.30
2018-07-31T07:34:29.925Z,4.40
2018-07-31T07:35:33.470Z,4.40
2018-07-31T07:36:37.003Z,4.12
2018-07-31T07:37:40.524Z,4.30
2018-07-31T07:38:44.111Z,4.53
2018-07-31T07:39:47.938Z,4.92
2018-07-31T07:40:51.753Z,4.92
2018-07-31T07:41:55.224Z,4.20
2018-07-31T07:42:58.817Z,4.05
2018-07-31T07:44:02.399Z,4.42
2018-07-31T07:45:05.960Z,5.33
2018-07-31T07:46:09.537Z,4.78
2018-07-31T07:47:14.010Z,4.15
2018-07-31T07:48:17.509Z,4.67
2018-07-31T07:49:21.063Z,3.85
2018-07-31T07:50:24.599Z,3.90
2018-07-31T07:51:28.136Z,3.90
2018-07-31T07:52:31.582Z,3.60
2018-07-31T07:53:35.194Z,3.87
2018-07-31T07:54:38.750Z,3.67
2018-07-31T07:55:42.233Z,4.35
2018-07-31T07:56:45.775Z,3.00
2018-07-31T07:57:49.253Z,3.80
2018-07-31T07:58:52.936Z,4.28
2018-07-31T07:59:56.444Z,3.65
2018-07-31T08:00:59.999Z,4.33
2018-07-31T08:02:03.620Z,4.00
2018-07-31T08:03:07.296Z,4.22
2018-07-31T08:04:11.983Z,3.72
2018-07-31T08:05:15.402Z,4.25
2018-07-31T08:06:18.909Z,4.10
2018-07-31T08:07:22.521Z,4.08
2018-07-31T08:08:26.066Z,3.95
2018-07-31T08:09:29.610Z,3.60
2018-07-31T08:10:33.090Z,3.87
2018-07-31T08:11:36.986Z,3.50
2018-07-31T08:12:40.554Z,3.45
2018-07-31T08:13:44.065Z,3.40
2018-07-31T08:14:47.659Z,3.27
2018-07-31T08:15:51.226Z,3.75
2018-07-31T08:16:54.807Z,3.80
2018-07-31T08:17:58.361Z,3.80
2018-07-31T08:19:02.263Z,4.05
2018-07-31T08:20:06.533Z,2.85
2018-07-31T08:21:10.487Z,4.30
2018-07-31T08:22:14.332Z,4.17
2018-07-31T08:23:17.946Z,3.67
2018-07-31T08:24:21.489Z,3.20
2018-07-31T08:25:25.009Z,3.35
2018-07-31T08:26:28.546Z,2.80
2018-07-31T08:27:32.170Z,3.33
2018-07-31T08:28:35.709Z,3.80
2018-07-31T08:29:39.378Z,3.10
2018-07-31T08:30:42.936Z,2.80
2018-07-31T08:31:46.666Z,3.12
2018-07-31T08:32:50.301Z,3.72
2018-07-31T08:33:53.879Z,3.90
2018-07-31T08:34:57.366Z,3.72
2018-07-31T08:36:00.928Z,4.72
2018-07-31T08:37:04.463Z,3.95
2018-07-31T08:38:08.006Z,3.98
2018-07-31T08:40:26.262Z,2.87
2018-07-31T08:41:30.426Z,3.62
2018-07-31T08:42:34.200Z,3.90
2018-07-31T08:43:37.851Z,3.80
2018-07-31T08:44:41.509Z,3.20
2018-07-31T08:45:45.982Z,3.25
2018-07-31T08:46:49.804Z,2.95
2018-07-31T08:47:53.490Z,3.30
2018-07-31T08:48:57.594Z,3.00
2018-07-31T08:50:01.186Z,3.02
2018-07-31T08:51:05.552Z,2.45
2018-07-31T08:52:09.067Z,2.50
2018-07-31T08:53:12.794Z,2.30
2018-07-31T08:54:17.372Z,2.98
2018-07-31T08:55:21.253Z,2.98
2018-07-31T08:56:25.578Z,2.83
2018-07-31T08:57:29.711Z,3.10
2018-07-31T08:58:33.902Z,2.75
2018-07-31T08:59:37.573Z,2.92
2018-07-31T09:00:41.126Z,3.05
2018-07-31T09:01:45.005Z,2.40
2018-07-31T09:02:49.642Z,2.55
2018-07-31T09:03:53.309Z,3.02
2018-07-31T09:04:57.625Z,3.30
2018-07-31T09:06:01.222Z,2.70
2018-07-31T09:07:04.897Z,3.00
2018-07-31T09:08:08.767Z,2.87
2018-07-31T09:09:12.529Z,3.30
2018-07-31T09:10:16.910Z,2.80
2018-07-31T09:11:20.490Z,2.80
2018-07-31T09:12:24.271Z,2.62
2018-07-31T09:13:28.524Z,2.50
2018-07-31T09:14:33.058Z,2.60
2018-07-31T09:15:36.763Z,2.62
2018-07-31T09:16:40.354Z,2.70
2018-07-31T09:17:43.874Z,2.27
2018-07-31T09:18:48.235Z,3.08
2018-07-31T09:19:51.772Z,2.80
2018-07-31T09:20:55.848Z,2.90
2018-07-31T09:21:59.692Z,2.77
2018-07-31T09:23:03.266Z,2.90
2018-07-31T09:24:06.902Z,2.55
2018-07-31T09:25:11.399Z,2.80
2018-07-31T09:26:15.624Z,2.72
2018-07-31T09:27:19.849Z,2.67
2018-07-31T09:30:17.089Z,2.52
2018-07-31T09:31:49.243Z,2.20
2018-07-31T09:33:00.778Z,2.45
2018-07-31T09:34:05.335Z,2.25
2018-07-31T09:35:10.753Z,2.67
2018-07-31T09:36:14.389Z,2.10
2018-07-31T09:37:18.411Z,2.40
2018-07-31T09:38:22.097Z,2.22
2018-07-31T09:39:25.702Z,2.20
2018-07-31T09:40:29.572Z,2.60
2018-07-31T09:41:33.702Z,2.90
2018-07-31T09:42:37.449Z,2.40
2018-07-31T09:43:43.825Z,2.10
2018-07-31T09:44:47.947Z,2.20
2018-07-31T09:45:52.271Z,2.70
2018-07-31T09:46:56.556Z,2.40
2018-07-31T09:48:00.954Z,2.52
2018-07-31T09:49:04.764Z,2.17
2018-07-31T09:50:08.389Z,2.50
2018-07-31T09:51:12.859Z,2.22
2018-07-31T09:52:16.649Z,2.00
2018-07-31T09:53:21.284Z,2.77
2018-07-31T09:54:24.733Z,2.22
2018-07-31T09:55:28.687Z,2.08
2018-07-31T09:56:32.481Z,2.12
2018-07-31T09:57:37.034Z,2.10
2018-07-31T09:58:40.656Z,2.17
2018-07-31T09:59:44.293Z,2.15
2018-07-31T10:00:53.093Z,2.10
2018-07-31T10:01:57.474Z,1.95
2018-07-31T10:03:01.275Z,1.77
2018-07-31T10:04:05.748Z,2.10
2018-07-31T10:05:10.286Z,2.08
2018-07-31T10:06:14.180Z,2.17
2018-07-31T10:07:18.547Z,1.70
2018-07-31T10:08:23.129Z,2.17
2018-07-31T10:09:27.473Z,2.20
2018-07-31T10:10:31.296Z,1.98
2018-07-31T10:11:35.774Z,1.75
2018-07-31T10:12:39.417Z,2.02
2018-07-31T10:13:43.410Z,2.20
2018-07-31T10:14:47.082Z,2.20
2018-07-31T10:15:51.240Z,2.00
2018-07-31T10:16:54.891Z,1.82
2018-07-31T10:18:00.128Z,1.90
2018-07-31T10:19:04.450Z,1.95
2018-07-31T10:20:08.169Z,1.80
2018-07-31T10:21:12.719Z,2.00
2018-07-31T10:22:16.467Z,1.50
2018-07-31T10:23:20.627Z,1.92
2018-07-31T10:24:25.077Z,1.70
2018-07-31T10:25:29.122Z,1.72
2018-07-31T10:26:34.459Z,1.87
2018-07-31T10:27:38.324Z,1.60
2018-07-31T10:28:43.090Z,1.65
2018-07-31T10:29:48.051Z,1.70
2018-07-31T10:30:52.266Z,1.95
2018-07-31T10:31:55.697Z,1.75
2018-07-31T10:32:59.395Z,2.27
2018-07-31T10:34:02.969Z,1.85
2018-07-31T10:35:06.956Z,1.45
2018-07-31T10:36:10.917Z,1.87
2018-07-31T10:37:14.512Z,1.65
2018-07-31T10:38:18.206Z,1.40
2018-07-31T10:39:22.363Z,1.75
2018-07-31T10:40:26.111Z,1.80
2018-07-31T10:41:30.039Z,1.62
2018-07-31T10:42:34.280Z,2.02
2018-07-31T10:43:38.216Z,1.72
2018-07-31T10:44:41.954Z,1.72
2018-07-31T10:45:46.256Z,2.30
2018-07-31T10:46:50.983Z,2.05
2018-07-31T10:47:55.636Z,1.98
2018-07-31T10:48:59.337Z,1.70
2018-07-31T10:50:03.016Z,2.30
2018-07-31T10:51:09.252Z,1.70
2018-07-31T10:52:13.223Z,1.85
2018-07-31T10:53:16.976Z,1.87
2018-07-31T10:54:21.170Z,1.82
2018-07-31T10:55:25.018Z,2.05
2018-07-31T10:56:28.630Z,1.40
2018-07-31T10:57:32.330Z,2.05
2018-07-31T10:58:37.166Z,1.75
2018-07-31T10:59:41.122Z,1.80
2018-07-31T11:00:45.330Z,1.72
2018-07-31T11:01:48.887Z,2.00
2018-07-31T11:02:52.616Z,2.37
2018-07-31T11:03:56.326Z,2.22
2018-07-31T11:05:00.033Z,1.90
2018-07-31T11:06:04.467Z,1.50
2018-07-31T11:07:08.224Z,1.82
2018-07-31T11:08:11.852Z,1.67
2018-07-31T11:09:15.486Z,1.92
2018-07-31T11:10:19.766Z,1.92
2018-07-31T11:11:23.374Z,1.70
2018-07-31T11:12:27.061Z,2.10
2018-07-31T11:13:30.807Z,2.05
2018-07-31T11:14:34.495Z,2.08
2018-07-31T11:15:38.068Z,1.87
2018-07-31T11:16:41.341Z,2.20
2018-07-31T11:17:46.267Z,1.80
2018-07-31T11:18:49.863Z,1.98
2018-07-31T11:19:54.321Z,1.72
2018-07-31T11:20:57.885Z,1.98
2018-07-31T11:22:01.649Z,1.90
2018-07-31T11:23:06.672Z,2.25
2018-07-31T11:24:10.325Z,2.15
2018-07-31T11:25:14.960Z,2.25
2018-07-31T11:26:18.601Z,2.17
2018-07-31T11:27:22.367Z,2.33
2018-07-31T11:28:26.619Z,3.10
2018-07-31T11:29:30.469Z,2.60
2018-07-31T11:30:34.208Z,2.50
2018-07-31T11:31:37.920Z,2.50
2018-07-31T11:32:42.177Z,2.60
2018-07-31T11:33:45.747Z,2.22
2018-07-31T11:34:49.557Z,2.22
2018-07-31T11:35:54.200Z,2.37
2018-07-31T11:36:57.903Z,2.20
2018-07-31T11:38:02.091Z,2.27
2018-07-31T11:39:08.876Z,2.02
2018-07-31T11:40:13.766Z,2.58
2018-07-31T11:41:18.039Z,2.67
2018-07-31T11:42:21.659Z,2.27
2018-07-31T11:43:25.254Z,2.30
2018-07-31T11:44:28.816Z,2.40
2018-07-31T11:45:32.411Z,2.60
2018-07-31T11:46:37.600Z,2.80
2018-07-31T11:47:42.429Z,2.47
2018-07-31T11:48:46.092Z,2.30
2018-07-31T11:49:49.766Z,2.65
2018-07-31T11:50:53.457Z,2.55
2018-07-31T11:51:58.165Z,2.55
2018-07-31T11:53:02.863Z,2.10
2018-07-31T11:54:07.102Z,2.40
2018-07-31T11:55:10.734Z,2.17
2018-07-31T11:56:14.520Z,2.50
2018-07-31T11:57:18.404Z,2.30
2018-07-31T11:58:22.945Z,2.58
2018-07-31T11:59:27.098Z,2.50
2018-07-31T12:00:30.690Z,2.30
2018-07-31T12:01:34.457Z,1.85
2018-07-31T12:02:38.922Z,2.22
2018-07-31T12:03:43.561Z,2.10
2018-07-31T12:04:48.911Z,1.72
2018-07-31T12:05:52.831Z,2.00
2018-07-31T12:06:56.519Z,1.85
2018-07-31T12:08:01.925Z,1.98
2018-07-31T12:09:09.776Z,1.80
2018-07-31T12:10:14.533Z,2.30
2018-07-31T12:11:18.900Z,1.72
2018-07-31T12:12:23.674Z,1.85
2018-07-31T12:13:27.793Z,1.75
2018-07-31T12:14:31.681Z,1.87
2018-07-31T12:15:35.235Z,1.95
2018-07-31T12:16:39.138Z,2.55
2018-07-31T12:17:43.448Z,2.25
2018-07-31T12:18:48.538Z,2.80
2018-07-31T12:19:52.157Z,2.20
2018-07-31T12:20:56.048Z,3.02
2018-07-31T12:21:59.575Z,2.10
2018-07-31T12:23:03.925Z,2.90
2018-07-31T12:24:07.571Z,2.37
2018-07-31T12:25:11.194Z,2.00
2018-07-31T12:26:15.010Z,2.20
2018-07-31T12:27:21.666Z,2.85
2018-07-31T12:28:25.924Z,1.92
2018-07-31T12:29:30.467Z,2.58
2018-07-31T12:30:34.643Z,2.50
2018-07-31T12:31:40.112Z,2.17
2018-07-31T12:32:43.747Z,2.25
2018-07-31T12:33:47.378Z,2.00
2018-07-31T12:34:51.253Z,1.85
2018-07-31T12:35:55.771Z,2.05
2018-07-31T12:36:59.362Z,2.65
2018-07-31T12:38:05.895Z,2.50
2018-07-31T12:39:11.879Z,2.00
2018-07-31T12:40:15.666Z,2.15
2018-07-31T12:41:19.856Z,2.62
2018-07-31T12:42:23.878Z,1.90
2018-07-31T12:43:27.786Z,1.75
2018-07-31T12:44:31.413Z,2.33
2018-07-31T12:45:35.513Z,2.55
2018-07-31T12:46:39.165Z,2.42
2018-07-31T12:47:43.583Z,1.82
2018-07-31T12:48:47.169Z,2.10
2018-07-31T12:49:50.826Z,2.10
2018-07-31T12:50:55.043Z,2.10
2018-07-31T12:51:59.688Z,1.85
2018-07-31T12:53:03.052Z,1.95
2018-07-31T12:54:06.686Z,2.15
2018-07-31T12:55:10.344Z,1.72
2018-07-31T12:56:14.940Z,2.00
2018-07-31T12:57:19.274Z,2.02
2018-07-31T12:58:22.843Z,2.10
2018-07-31T12:59:26.430Z,2.10
2018-07-31T13:00:30.121Z,2.00
2018-07-31T13:01:33.730Z,2.10
2018-07-31T13:02:37.520Z,1.82
2018-07-31T13:03:41.155Z,2.25
2018-07-31T13:04:44.696Z,2.25
2018-07-31T13:05:48.657Z,1.72
2018-07-31T13:06:52.899Z,1.70
2018-07-31T13:07:57.106Z,1.75
2018-07-31T13:09:00.764Z,1.75
2018-07-31T13:10:04.861Z,1.75
2018-07-31T13:11:08.664Z,1.80
2018-07-31T13:12:12.924Z,2.60
2018-07-31T13:13:16.503Z,1.65
2018-07-31T13:14:21.808Z,1.77
2018-07-31T13:15:25.760Z,2.02
2018-07-31T13:16:30.401Z,1.42
2018-07-31T13:17:34.186Z,1.60
2018-07-31T13:18:38.930Z,2.00
2018-07-31T13:19:42.596Z,1.70
2018-07-31T13:20:46.628Z,1.65
2018-07-31T13:21:50.411Z,1.95
2018-07-31T13:22:54.042Z,1.80
2018-07-31T13:23:58.142Z,1.75
2018-07-31T13:25:02.552Z,1.40
2018-07-31T13:26:06.286Z,2.08
2018-07-31T13:27:10.015Z,2.40
2018-07-31T13:28:13.873Z,1.82
2018-07-31T13:29:17.503Z,2.15
2018-07-31T13:30:21.353Z,1.35
2018-07-31T13:31:25.591Z,1.92
2018-07-31T13:32:29.958Z,1.47
2018-07-31T13:33:34.267Z,1.65
2018-07-31T13:34:37.977Z,1.62
2018-07-31T13:35:42.132Z,1.82
2018-07-31T13:36:45.868Z,1.80
2018-07-31T13:37:49.607Z,2.12
2018-07-31T13:38:53.476Z,1.80
2018-07-31T13:39:57.767Z,1.22
2018-07-31T13:41:08.581Z,1.40
2018-07-31T13:42:12.287Z,1.55
2018-07-31T13:43:15.914Z,1.42
2018-07-31T13:44:20.177Z,1.70
2018-07-31T13:45:24.583Z,1.60
2018-07-31T13:46:28.750Z,1.50
2018-07-31T13:47:32.426Z,1.47
2018-07-31T13:48:36.120Z,1.37
2018-07-31T13:49:40.347Z,1.70
2018-07-31T13:50:44.164Z,1.27
2018-07-31T13:51:47.914Z,1.65
2018-07-31T13:52:51.660Z,1.70
2018-07-31T13:53:55.354Z,1.40
2018-07-31T13:54:59.735Z,1.50
2018-07-31T13:56:03.992Z,1.98
2018-07-31T13:57:07.739Z,1.50
2018-07-31T13:58:11.624Z,1.60
2018-07-31T13:59:19.513Z,1.40
2018-07-31T14:00:23.131Z,1.70
2018-07-31T14:01:26.894Z,1.40
2018-07-31T14:02:31.751Z,1.27
2018-07-31T14:03:36.103Z,1.60
2018-07-31T14:04:39.750Z,1.30
2018-07-31T14:05:44.211Z,1.57
2018-07-31T14:06:48.264Z,1.57
2018-07-31T14:07:52.519Z,1.40
2018-07-31T14:08:56.856Z,1.20
2018-07-31T14:10:00.619Z,1.30